createdAt,value
2023-05-24T00:01:27.788Z,2.93
2023-05-24T00:05:31.326Z,3.00
2023-05-24T00:09:33.374Z,3.03
2023-05-24T00:13:35.529Z,3.00
2023-05-24T00:17:41.664Z,3.80
2023-05-24T00:21:43.904Z,3.27
2023-05-24T00:25:45.650Z,3.40
2023-05-24T00:29:47.481Z,3.47
2023-05-24T00:33:49.288Z,3.20
2023-05-24T00:37:51.091Z,3.37
2023-05-24T00:41:52.910Z,3.17
2023-05-24T00:46:07.515Z,3.47
2023-05-24T00:50:09.978Z,3.37
2023-05-24T00:54:13.956Z,3.47
2023-05-24T00:58:16.022Z,3.20
2023-05-24T01:02:18.548Z,2.83
2023-05-24T01:06:20.522Z,3.23
2023-05-24T01:10:26.130Z,2.90
2023-05-24T01:14:57.030Z,2.90
2023-05-24T01:19:00.930Z,2.80
2023-05-24T01:23:05.968Z,2.93
2023-05-24T01:27:14.463Z,2.83
2023-05-24T01:31:17.202Z,3.00
2023-05-24T01:35:19.010Z,2.77
2023-05-24T01:39:21.197Z,2.80
2023-05-24T01:43:27.512Z,3.07
2023-05-24T01:47:41.984Z,3.10
2023-05-24T01:51:56.200Z,3.30
2023-05-24T01:55:57.997Z,2.93
2023-05-24T01:59:59.684Z,2.70
2023-05-24T02:04:08.173Z,2.80
2023-05-24T02:08:23.175Z,2.50
2023-05-24T02:12:24.890Z,2.40
2023-05-24T02:16:33.235Z,2.67
2023-05-24T02:20:44.506Z,2.60
2023-05-24T02:24:55.264Z,2.37
2023-05-24T02:28:57.202Z,2.87
2023-05-24T02:32:59.009Z,2.13
2023-05-24T02:37:02.537Z,2.40
2023-05-24T02:41:04.306Z,2.87
2023-05-24T02:45:06.675Z,2.63
2023-05-24T02:49:08.393Z,2.33
2023-05-24T02:53:10.133Z,2.40
2023-05-24T02:57:11.849Z,2.60
2023-05-24T03:01:13.672Z,2.43
2023-05-24T03:05:15.807Z,2.63
2023-05-24T03:09:19.048Z,2.70
2023-05-24T03:13:20.952Z,2.30
2023-05-24T03:17:23.007Z,3.23
2023-05-24T03:21:25.364Z,2.70
2023-05-24T03:25:27.447Z,2.90
2023-05-24T03:29:29.231Z,2.97
2023-05-24T03:33:32.217Z,2.80
2023-05-24T03:37:34.024Z,3.17
2023-05-24T03:41:36.144Z,2.73
2023-05-24T03:45:40.050Z,2.43
2023-05-24T03:49:42.094Z,2.90
2023-05-24T03:53:43.850Z,2.40
2023-05-24T03:57:45.662Z,2.30
2023-05-24T04:01:47.572Z,2.63
2023-05-24T04:05:49.496Z,2.93
2023-05-24T04:09:51.392Z,2.27
2023-05-24T04:13:53.153Z,2.27
2023-05-24T04:17:55.699Z,2.90
2023-05-24T04:21:57.858Z,2.57
2023-05-24T04:25:59.702Z,2.33
2023-05-24T04:30:15.613Z,2.40
2023-05-24T04:34:17.372Z,2.40
2023-05-24T04:38:23.392Z,2.50
2023-05-24T04:42:25.270Z,2.30
2023-05-24T04:46:27.454Z,2.47
2023-05-24T04:50:29.730Z,2.40
2023-05-24T04:54:31.638Z,2.10
2023-05-24T04:58:33.985Z,3.47
2023-05-24T05:02:35.914Z,2.57
2023-05-24T05:06:44.481Z,2.43
2023-05-24T05:10:46.452Z,2.70
2023-05-24T05:14:48.285Z,2.37
2023-05-24T05:18:50.114Z,2.30
2023-05-24T05:22:51.876Z,2.27
2023-05-24T05:26:53.610Z,2.70
2023-05-24T05:30:56.932Z,2.50
2023-05-24T05:34:58.744Z,3.07
2023-05-24T05:39:03.126Z,2.60
2023-05-24T05:43:04.819Z,3.07
2023-05-24T05:47:09.874Z,3.10
2023-05-24T05:51:11.661Z,2.70
2023-05-24T05:55:13.511Z,2.90
2023-05-24T05:59:19.548Z,3.17
2023-05-24T06:03:21.631Z,2.97
2023-05-24T06:07:23.653Z,3.27
2023-05-24T06:11:26.964Z,2.77
2023-05-24T06:15:28.858Z,2.90
2023-05-24T06:19:31.157Z,2.70
2023-05-24T06:23:32.936Z,2.70
2023-05-24T06:27:34.772Z,2.70
2023-05-24T06:31:36.640Z,2.80
2023-05-24T06:35:38.462Z,2.90
2023-05-24T06:39:40.276Z,3.07
2023-05-24T06:43:42.168Z,2.90
2023-05-24T06:47:43.978Z,3.27
2023-05-24T06:51:47.077Z,2.80
2023-05-24T06:55:49.122Z,2.73
2023-05-24T06:59:51.181Z,2.93
2023-05-24T07:03:52.917Z,2.73
2023-05-24T07:07:54.732Z,2.87
2023-05-24T07:11:56.463Z,3.13
2023-05-24T07:15:58.234Z,2.67
2023-05-24T07:20:01.697Z,2.90
2023-05-24T07:24:06.182Z,2.90
2023-05-24T07:28:08.156Z,2.90
2023-05-24T07:32:14.261Z,3.00
2023-05-24T07:36:16.268Z,3.37
2023-05-24T07:40:18.139Z,3.23
2023-05-24T07:44:20.107Z,2.90
2023-05-24T07:48:21.865Z,3.07
2023-05-24T07:52:24.534Z,2.67
2023-05-24T07:56:26.450Z,3.40
2023-05-24T08:00:28.281Z,2.60
2023-05-24T08:04:30.284Z,3.00
2023-05-24T08:08:32.068Z,3.20
2023-05-24T08:12:33.816Z,4.10
2023-05-24T08:16:35.604Z,2.80
2023-05-24T08:20:37.829Z,3.07
2023-05-24T08:24:39.678Z,2.90
2023-05-24T08:28:41.545Z,3.17
2023-05-24T08:32:43.330Z,2.90
2023-05-24T08:36:45.992Z,2.90
2023-05-24T08:40:48.262Z,3.10
2023-05-24T08:44:54.193Z,3.47
2023-05-24T08:48:56.690Z,3.23
2023-05-24T08:52:58.574Z,3.33
2023-05-24T08:57:00.409Z,3.03
2023-05-24T09:01:02.289Z,3.50
2023-05-24T09:05:04.757Z,4.13
2023-05-24T09:09:07.353Z,3.57
2023-05-24T09:13:09.301Z,3.67
2023-05-24T09:17:11.094Z,3.43
2023-05-24T09:21:13.257Z,3.30
2023-05-24T09:25:15.479Z,3.83
2023-05-24T09:29:17.589Z,3.90
2023-05-24T09:33:19.377Z,3.73
2023-05-24T09:37:26.934Z,4.00
2023-05-24T09:41:31.726Z,3.73
2023-05-24T09:45:33.542Z,4.00
2023-05-24T09:49:38.675Z,3.70
2023-05-24T09:53:40.725Z,3.70
2023-05-24T09:57:44.204Z,3.80
2023-05-24T10:01:47.022Z,3.73
2023-05-24T10:05:50.200Z,3.80
2023-05-24T10:09:53.055Z,3.73
2023-05-24T10:13:55.053Z,4.10
2023-05-24T10:18:01.255Z,4.07
2023-05-24T10:22:11.136Z,3.70
2023-05-24T10:26:17.583Z,3.63
2023-05-24T10:30:34.087Z,3.83
2023-05-24T10:34:38.393Z,4.00
2023-05-24T10:38:43.852Z,3.73
2023-05-24T10:42:47.345Z,3.93
2023-05-24T10:47:12.877Z,3.60
2023-05-24T10:51:34.096Z,3.00
2023-05-24T10:55:39.836Z,3.57
2023-05-24T10:59:44.366Z,3.80
2023-05-24T11:03:46.822Z,3.00
2023-05-24T11:07:49.498Z,3.27
2023-05-24T11:11:55.535Z,3.10
2023-05-24T11:16:01.740Z,3.10
2023-05-24T11:20:05.585Z,3.53
2023-05-24T11:24:10.187Z,3.50
2023-05-24T11:28:25.930Z,4.00
2023-05-24T11:32:28.777Z,4.40
2023-05-24T11:36:33.277Z,3.80
2023-05-24T11:40:41.788Z,4.17
2023-05-24T11:44:46.989Z,4.10
2023-05-24T11:48:59.457Z,3.93
2023-05-24T11:53:04.210Z,4.30
2023-05-24T11:57:06.372Z,5.20
2023-05-24T12:01:21.992Z,4.63
2023-05-24T12:05:23.874Z,4.37
2023-05-24T12:09:31.059Z,4.10
2023-05-24T12:13:32.994Z,4.10
2023-05-24T12:17:35.061Z,4.10
2023-05-24T12:21:41.724Z,4.40
2023-05-24T12:25:44.317Z,4.10
2023-05-24T12:29:47.227Z,4.50
2023-05-24T12:33:49.091Z,3.80
2023-05-24T12:38:00.299Z,4.03
2023-05-24T12:42:02.475Z,3.97
2023-05-24T12:46:04.464Z,4.30
2023-05-24T12:50:06.506Z,4.23
2023-05-24T12:54:08.296Z,4.30
2023-05-24T12:58:14.444Z,4.33
2023-05-24T13:02:16.191Z,3.57
2023-05-24T13:06:18.080Z,4.10
2023-05-24T13:10:19.933Z,4.33
2023-05-24T13:14:22.065Z,3.90
2023-05-24T13:18:24.434Z,4.40
2023-05-24T13:22:26.956Z,3.90
2023-05-24T13:26:29.040Z,4.40
2023-05-24T13:30:31.136Z,3.87
2023-05-24T13:34:33.446Z,4.00
2023-05-24T13:38:35.343Z,4.37
2023-05-24T13:46:57.412Z,3.73
2023-05-24T13:51:03.998Z,4.00
2023-05-24T13:55:06.488Z,3.97
2023-05-24T13:59:14.630Z,4.33
2023-05-24T14:03:16.491Z,4.07
2023-05-24T14:07:19.222Z,4.00
2023-05-24T14:11:22.647Z,3.97
2023-05-24T14:15:24.660Z,4.10
2023-05-24T14:19:26.547Z,4.40
2023-05-24T14:23:32.094Z,4.13
2023-05-24T14:27:33.910Z,3.77
2023-05-24T14:31:42.296Z,3.83
2023-05-24T14:36:02.063Z,4.00
2023-05-24T14:40:19.850Z,3.53
2023-05-24T14:44:22.624Z,4.10
2023-05-24T14:48:24.647Z,3.70
2023-05-24T14:52:26.554Z,4.07
2023-05-24T14:56:30.730Z,3.50
2023-05-24T15:00:36.757Z,4.17
2023-05-24T15:04:47.343Z,4.13
2023-05-24T15:08:49.450Z,4.20
2023-05-24T15:12:54.484Z,4.23
2023-05-24T15:16:56.544Z,4.20
2023-05-24T15:21:04.557Z,4.37
2023-05-24T15:25:10.749Z,4.00
2023-05-24T15:29:19.692Z,4.63
2023-05-24T15:33:21.680Z,3.90
2023-05-24T15:37:26.985Z,4.37
2023-05-24T15:41:28.854Z,3.90
2023-05-24T15:45:30.789Z,3.70
2023-05-24T15:49:32.653Z,3.70
2023-05-24T15:53:34.481Z,3.80
2023-05-24T15:57:36.336Z,3.37
2023-05-24T16:01:41.009Z,3.30
2023-05-24T16:05:43.053Z,3.70
2023-05-24T16:09:46.834Z,3.80
2023-05-24T16:13:50.131Z,3.67
2023-05-24T16:17:52.131Z,3.70
2023-05-24T16:21:54.057Z,3.73
2023-05-24T16:25:55.906Z,4.10
2023-05-24T16:29:57.733Z,3.83
2023-05-24T16:33:59.552Z,3.57
2023-05-24T16:38:01.325Z,3.40
2023-05-24T16:42:03.792Z,3.50
2023-05-24T16:46:05.677Z,3.90
2023-05-24T16:50:14.766Z,3.47
2023-05-24T16:54:16.691Z,3.90
2023-05-24T16:58:18.712Z,3.23
2023-05-24T17:02:20.500Z,3.33
2023-05-24T17:06:22.476Z,3.90
2023-05-24T17:10:24.501Z,3.43
2023-05-24T17:14:26.310Z,3.20
2023-05-24T17:18:31.608Z,3.27
2023-05-24T17:22:33.499Z,3.20
2023-05-24T17:26:39.888Z,3.13
2023-05-24T17:30:42.068Z,3.00
2023-05-24T17:34:44.182Z,3.10
2023-05-24T17:38:46.320Z,3.20
2023-05-24T17:42:50.834Z,3.50
2023-05-24T17:46:53.609Z,3.87
2023-05-24T17:50:55.731Z,3.33
2023-05-24T17:55:02.410Z,3.10
2023-05-24T17:59:06.513Z,3.10
2023-05-24T18:03:09.635Z,3.23
2023-05-24T18:07:14.427Z,3.07
2023-05-24T18:11:19.113Z,3.47
2023-05-24T18:15:27.984Z,3.47
2023-05-24T18:19:37.482Z,3.40
2023-05-24T18:23:39.604Z,3.10
2023-05-24T18:27:44.149Z,3.10
2023-05-24T18:31:46.890Z,3.53
2023-05-24T18:35:48.758Z,3.30
2023-05-24T18:39:53.105Z,4.00
2023-05-24T18:44:00.401Z,3.67
2023-05-24T18:52:21.992Z,4.07
2023-05-24T18:56:24.487Z,3.37
2023-05-24T19:00:29.723Z,3.73
2023-05-24T19:04:31.776Z,3.60
2023-05-24T19:08:33.853Z,3.60
2023-05-24T19:12:35.756Z,4.07
2023-05-24T19:16:37.912Z,3.73
2023-05-24T19:20:48.954Z,4.30
2023-05-24T19:24:51.349Z,4.27
2023-05-24T19:28:56.030Z,4.30
2023-05-24T19:32:58.065Z,4.20
2023-05-24T19:36:59.893Z,3.93
2023-05-24T19:41:38.867Z,4.07
2023-05-24T19:45:45.491Z,3.80
2023-05-24T19:49:47.715Z,3.30
2023-05-24T19:53:52.563Z,4.40
2023-05-24T19:57:56.607Z,3.83
2023-05-24T20:01:58.761Z,4.07
2023-05-24T20:06:01.460Z,3.80
2023-05-24T20:10:05.342Z,4.20
2023-05-24T20:14:08.482Z,4.33
2023-05-24T20:18:10.465Z,3.90
2023-05-24T20:22:12.844Z,4.60
2023-05-24T20:26:14.813Z,4.43
2023-05-24T20:30:31.668Z,4.20
2023-05-24T20:34:39.728Z,3.93
2023-05-24T20:38:49.334Z,3.93
2023-05-24T20:42:52.287Z,4.23
2023-05-24T20:46:54.156Z,4.17
2023-05-24T20:50:58.414Z,5.00
2023-05-24T20:55:00.255Z,4.27
2023-05-24T20:59:02.347Z,4.90
2023-05-24T21:03:04.559Z,4.27
2023-05-24T21:07:07.964Z,4.90
2023-05-24T21:11:09.777Z,4.83
2023-05-24T21:15:11.785Z,4.70
2023-05-24T21:19:13.517Z,5.00
2023-05-24T21:23:15.351Z,4.70
2023-05-24T21:27:18.808Z,4.60
2023-05-24T21:31:20.978Z,4.63
2023-05-24T21:35:22.814Z,5.13
2023-05-24T21:39:24.626Z,5.53
2023-05-24T21:43:26.448Z,7.07
2023-05-24T21:47:28.211Z,7.73
2023-05-24T21:51:30.066Z,6.87
2023-05-24T21:55:32.153Z,8.23
2023-05-24T21:59:33.992Z,7.57
2023-05-24T22:03:35.909Z,6.90
2023-05-24T22:07:37.933Z,7.67
2023-05-24T22:11:41.290Z,7.67
2023-05-24T22:15:43.377Z,7.47
2023-05-24T22:19:48.326Z,8.03
2023-05-24T22:23:51.480Z,7.43
2023-05-24T22:27:55.675Z,7.80
2023-05-24T22:31:58.081Z,7.10
2023-05-24T22:35:59.856Z,7.23
2023-05-24T22:40:01.807Z,7.30
2023-05-24T22:44:03.598Z,6.50
2023-05-24T22:48:05.524Z,6.57
2023-05-24T22:52:07.395Z,7.03
2023-05-24T22:56:10.657Z,5.47
2023-05-24T23:00:12.965Z,5.53
2023-05-24T23:08:21.628Z,5.87
2023-05-24T23:12:25.120Z,9.73
2023-05-24T23:16:28.923Z,9.77
2023-05-24T23:20:30.823Z,9.57
2023-05-24T23:24:34.481Z,8.17
2023-05-24T23:28:37.430Z,7.43
2023-05-24T23:32:39.216Z,6.93
2023-05-24T23:36:41.399Z,6.40
2023-05-24T23:40:43.210Z,6.30
2023-05-24T23:44:45.478Z,6.80
2023-05-24T23:48:47.268Z,6.80
2023-05-24T23:52:49.386Z,6.53
2023-05-24T23:56:51.090Z,6.20
